Time;durP1;ratioP1;P1;durP2;ratioP2;P2;SDS_P1;SDS_P2;PMS_P1;PMS_P2;Temp;Humidity;BMP_temperature;BMP_pressure;BME280_temperature;BME280_humidity;BME280_pressure;Samples;Min_cycle;Max_cycle;Signal;HPM_P1;HPM_P2
2021/12/10 00:01:22;;;;;;;10.88;4.82;;;22.00;51.40;;;;;;5213076;28;20052;-78
2021/12/10 00:03:58;;;;;;;10.55;4.75;;;22.00;51.30;;;;;;5191121;28;20060;-79
2021/12/10 00:06:38;;;;;;;18.02;5.43;;;22.00;51.30;;;;;;5198228;28;20033;-78
2021/12/10 00:09:32;;;;;;;10.95;4.95;;;22.00;51.30;;;;;;5199608;28;21874;-79
2021/12/10 00:12:13;;;;;;;10.85;4.28;;;22.00;51.20;;;;;;5204671;28;20064;-78
2021/12/10 00:14:46;;;;;;;20.20;5.32;;;22.00;51.30;;;;;;5192021;28;20056;-78
2021/12/10 00:17:21;;;;;;;9.23;4.95;;;22.00;51.20;;;;;;5207052;28;20041;-79
2021/12/10 00:19:58;;;;;;;8.27;3.90;;;21.90;51.30;;;;;;5208601;28;20643;-79
2021/12/10 00:22:42;;;;;;;10.63;4.78;;;21.90;51.20;;;;;;5207086;28;20061;-78
2021/12/10 00:25:20;;;;;;;12.32;4.68;;;22.00;51.30;;;;;;5205809;28;20438;-79
2021/12/10 00:27:55;;;;;;;11.25;4.47;;;21.90;51.20;;;;;;5211951;28;20041;-79
2021/12/10 00:30:33;;;;;;;10.02;4.55;;;22.00;51.90;;;;;;5203835;28;20056;-78
2021/12/10 00:33:20;;;;;;;7.68;4.00;;;22.00;51.20;;;;;;5189843;28;20525;-78
2021/12/10 00:35:55;;;;;;;8.23;3.90;;;21.90;51.20;;;;;;5204103;28;20037;-78
2021/12/10 00:38:27;;;;;;;10.20;4.55;;;22.00;51.20;;;;;;5211333;28;20048;-78
2021/12/10 00:41:00;;;;;;;8.55;3.55;;;21.90;51.70;;;;;;5204864;28;20506;-79
2021/12/10 00:43:34;;;;;;;7.68;3.95;;;21.90;51.10;;;;;;5210979;28;20060;-79
2021/12/10 00:46:07;;;;;;;8.68;3.70;;;21.90;51.10;;;;;;5201809;28;20048;-78
2021/12/10 00:48:39;;;;;;;7.13;3.83;;;21.90;51.10;;;;;;5203968;28;20051;-79
2021/12/10 00:51:13;;;;;;;11.73;4.35;;;21.90;51.20;;;;;;5195593;28;20048;-79
2021/12/10 00:53:47;;;;;;;7.72;3.42;;;21.90;51.10;;;;;;5204886;28;20040;-79
2021/12/10 00:56:21;;;;;;;9.98;3.63;;;21.90;51.20;;;;;;5165062;28;20053;-79
2021/12/10 00:58:53;;;;;;;8.43;4.13;;;21.90;51.20;;;;;;5199800;28;20048;-79
2021/12/10 01:01:31;;;;;;;7.85;4.07;;;21.90;51.20;;;;;;5186789;28;20041;-78
2021/12/10 01:04:13;;;;;;;9.20;3.95;;;21.90;51.20;;;;;;5199639;28;20060;-79
2021/12/10 01:06:48;;;;;;;9.73;3.25;;;21.90;51.10;;;;;;5193229;28;20048;-79
2021/12/10 01:09:27;;;;;;;8.00;3.50;;;21.90;51.10;;;;;;5175826;28;20556;-79
2021/12/10 01:12:12;;;;;;;7.30;3.53;;;21.90;51.10;;;;;;5193266;28;20056;-78
2021/12/10 01:23:48;;;;;;;6.28;3.10;;;21.90;51.10;;;;;;5199819;28;21145;-79
2021/12/10 01:24:50;;;;;;;7.15;3.95;;;21.80;51.10;;;;;;5200247;28;20049;-79
2021/12/10 01:27:25;;;;;;;6.30;3.28;;;21.80;51.10;;;;;;5196189;28;20124;-79
2021/12/10 01:30:02;;;;;;;5.57;2.67;;;21.90;51.20;;;;;;5163642;28;20422;-78
2021/12/10 01:32:38;;;;;;;10.15;3.13;;;21.80;51.10;;;;;;5198689;28;20490;-79
2021/12/10 01:35:14;;;;;;;4.97;2.55;;;21.90;51.20;;;;;;5181696;28;20416;-78
2021/12/10 01:37:46;;;;;;;5.38;2.70;;;21.80;51.10;;;;;;5202442;28;20045;-78
2021/12/10 01:40:21;;;;;;;5.65;3.20;;;21.90;51.20;;;;;;5203776;28;20048;-78
2021/12/10 01:43:05;;;;;;;6.82;2.90;;;21.80;51.10;;;;;;5204963;28;20052;-78
2021/12/10 01:45:47;;;;;;;;;;;21.80;51.10;;;;;;5202874;28;20175;-79
2021/12/10 01:48:30;;;;;;;7.35;3.28;;;21.80;51.10;;;;;;5199324;28;19928;-79
2021/12/10 01:51:04;;;;;;;8.90;3.03;;;21.80;51.10;;;;;;5187890;28;20057;-78
2021/12/10 01:53:40;;;;;;;8.55;2.72;;;21.80;51.20;;;;;;5202140;28;20041;-78
2021/12/10 01:56:21;;;;;;;7.78;2.42;;;21.80;51.20;;;;;;5207599;28;20418;-78
2021/12/10 01:58:56;;;;;;;8.25;2.80;;;21.80;51.20;;;;;;5201781;28;20402;-78
2021/12/10 02:01:33;;;;;;;3.95;2.20;;;21.80;51.20;;;;;;5188409;28;20619;-78
2021/12/10 02:04:09;;;;;;;7.85;2.97;;;21.80;51.20;;;;;;5184844;28;20040;-78
2021/12/10 02:06:43;;;;;;;8.45;3.17;;;21.80;51.20;;;;;;5180940;28;20067;-78
2021/12/10 02:09:15;;;;;;;6.55;2.38;;;21.80;51.10;;;;;;5185617;28;20041;-78
2021/12/10 02:11:51;;;;;;;10.13;2.90;;;21.80;51.10;;;;;;5178219;28;20052;-78
2021/12/10 02:14:23;;;;;;;6.03;2.55;;;21.80;51.10;;;;;;5182190;28;20402;-78
2021/12/10 02:16:58;;;;;;;6.15;2.53;;;21.80;51.00;;;;;;5194802;28;20044;-78
2021/12/10 02:19:31;;;;;;;6.78;2.25;;;21.80;51.00;;;;;;5187404;28;20040;-78
2021/12/10 02:22:04;;;;;;;5.72;2.47;;;21.80;51.10;;;;;;5172960;28;20071;-78
2021/12/10 02:24:37;;;;;;;4.90;2.15;;;21.80;51.10;;;;;;5190222;28;20045;-78
2021/12/10 02:27:09;;;;;;;4.97;2.30;;;21.80;51.10;;;;;;5203322;28;20068;-78
2021/12/10 02:29:42;;;;;;;4.17;2.70;;;21.80;51.10;;;;;;5209310;28;20056;-77
2021/12/10 02:32:14;;;;;;;8.20;2.10;;;21.80;51.00;;;;;;5203323;28;20048;-78
2021/12/10 02:34:49;;;;;;;7.30;2.00;;;21.80;51.00;;;;;;5209272;28;20471;-77
2021/12/10 02:37:22;;;;;;;3.72;1.98;;;21.80;51.00;;;;;;5186898;28;20041;-78
2021/12/10 02:39:54;;;;;;;4.40;1.87;;;21.80;51.00;;;;;;5206942;28;20421;-78
2021/12/10 02:42:27;;;;;;;4.18;2.28;;;21.80;51.00;;;;;;5202960;28;20631;-77
2021/12/10 02:44:59;;;;;;;5.18;2.15;;;21.80;51.00;;;;;;5207607;28;20057;-78
2021/12/10 02:47:32;;;;;;;3.03;2.00;;;21.80;51.00;;;;;;5183273;28;20055;-78
2021/12/10 02:50:08;;;;;;;6.68;2.38;;;21.80;50.90;;;;;;5212682;28;20052;-77
2021/12/10 02:52:40;;;;;;;4.18;1.77;;;21.80;50.90;;;;;;5207505;28;20051;-77
2021/12/10 02:55:15;;;;;;;4.53;2.13;;;21.80;50.90;;;;;;5210833;28;20052;-77
2021/12/10 02:57:52;;;;;;;4.32;2.00;;;21.80;50.90;;;;;;5201273;28;20072;-77
2021/12/10 03:00:29;;;;;;;4.40;1.98;;;21.80;50.90;;;;;;5208591;28;20191;-77
2021/12/10 03:03:03;;;;;;;4.53;2.13;;;21.80;50.80;;;;;;5210557;28;20056;-77
2021/12/10 03:05:35;;;;;;;4.22;1.95;;;21.80;50.80;;;;;;5206931;28;20053;-77
2021/12/10 03:08:08;;;;;;;5.18;2.00;;;21.80;50.80;;;;;;5206166;28;20052;-78
2021/12/10 03:10:41;;;;;;;4.63;2.10;;;21.80;50.80;;;;;;5205830;28;21343;-77
2021/12/10 03:13:13;;;;;;;3.30;2.05;;;21.80;50.70;;;;;;5189213;28;20502;-78
2021/12/10 03:15:46;;;;;;;3.65;1.73;;;21.80;50.70;;;;;;5203414;28;20041;-77
2021/12/10 03:18:19;;;;;;;4.13;2.00;;;21.80;50.70;;;;;;5206726;28;20049;-77
2021/12/10 03:20:52;;;;;;;4.93;2.03;;;21.80;50.70;;;;;;5207128;28;20422;-78
2021/12/10 03:23:25;;;;;;;5.43;1.80;;;21.80;50.70;;;;;;5196064;28;20057;-78
2021/12/10 03:25:57;;;;;;;4.90;2.17;;;21.80;50.80;;;;;;5200428;28;20045;-78
2021/12/10 03:28:30;;;;;;;6.20;1.90;;;21.80;50.80;;;;;;5202194;28;20044;-77
2021/12/10 03:31:04;;;;;;;4.05;1.80;;;21.80;50.70;;;;;;5201034;28;21188;-77
2021/12/10 03:33:39;;;;;;;4.43;1.80;;;21.80;50.80;;;;;;5201617;28;20048;-78
2021/12/10 03:36:11;;;;;;;3.35;1.90;;;21.80;50.80;;;;;;5202407;28;20052;-77
2021/12/10 03:38:44;;;;;;;6.75;1.60;;;21.80;50.80;;;;;;5196272;28;20052;-77
2021/12/10 03:41:18;;;;;;;5.72;1.63;;;21.80;50.80;;;;;;5200697;28;20048;-78
2021/12/10 03:43:53;;;;;;;3.95;1.40;;;21.80;50.70;;;;;;5186309;28;20056;-78
2021/12/10 03:46:26;;;;;;;4.45;1.80;;;21.80;50.80;;;;;;5199691;28;20052;-78
2021/12/10 03:49:03;;;;;;;4.13;1.77;;;21.80;50.70;;;;;;5204505;28;20044;-78
2021/12/10 03:51:36;;;;;;;4.57;1.65;;;21.80;50.70;;;;;;5205559;28;20045;-77
2021/12/10 03:54:11;;;;;;;3.20;1.40;;;21.80;50.60;;;;;;5190448;28;20509;-78
2021/12/10 03:56:45;;;;;;;7.07;1.90;;;21.80;50.60;;;;;;5207714;28;20044;-77
2021/12/10 03:59:21;;;;;;;3.45;1.35;;;21.80;50.60;;;;;;5188495;28;20048;-78
2021/12/10 04:01:56;;;;;;;3.28;1.77;;;21.80;50.60;;;;;;5189484;28;20069;-77
2021/12/10 04:04:32;;;;;;;4.35;1.52;;;21.80;50.60;;;;;;5205274;28;20052;-78
2021/12/10 04:07:09;;;;;;;2.60;1.60;;;21.80;50.50;;;;;;5200974;28;20040;-77
2021/12/10 04:09:41;;;;;;;4.15;1.48;;;21.80;50.60;;;;;;5185162;28;20475;-78
2021/12/10 04:12:15;;;;;;;3.35;1.35;;;21.80;50.60;;;;;;5179830;28;20045;-78
2021/12/10 04:14:49;;;;;;;4.13;1.80;;;21.80;50.50;;;;;;5210395;28;20045;-77
2021/12/10 04:17:22;;;;;;;2.28;1.02;;;21.80;50.50;;;;;;5174878;28;20049;-78
2021/12/10 04:19:55;;;;;;;3.40;1.40;;;21.80;50.50;;;;;;5209372;28;20487;-77
2021/12/10 04:22:32;;;;;;;4.20;1.60;;;21.80;50.50;;;;;;5206115;28;20418;-78
2021/12/10 04:25:08;;;;;;;2.67;1.30;;;21.70;50.40;;;;;;5189621;28;20143;-78
2021/12/10 04:27:41;;;;;;;3.45;1.63;;;21.80;50.40;;;;;;5208542;28;20072;-77
2021/12/10 04:30:14;;;;;;;;;;;21.70;50.40;;;;;;5199031;28;20033;-77
2021/12/10 04:32:46;;;;;;;3.40;1.40;;;21.70;50.30;;;;;;5199763;28;19936;-77
2021/12/10 04:35:19;;;;;;;4.40;1.80;;;21.80;50.40;;;;;;5200760;28;20045;-77
2021/12/10 04:37:51;;;;;;;3.35;1.42;;;21.70;50.40;;;;;;5193635;28;20045;-77
2021/12/10 04:40:24;;;;;;;2.00;1.20;;;21.70;50.40;;;;;;5192583;28;21061;-77
2021/12/10 04:42:56;;;;;;;4.43;1.35;;;21.70;50.30;;;;;;5182706;28;20052;-77
2021/12/10 04:45:29;;;;;;;2.55;1.30;;;21.80;50.40;;;;;;5186942;28;20518;-77
2021/12/10 04:48:02;;;;;;;3.28;1.50;;;21.80;50.50;;;;;;5191267;28;20064;-77
2021/12/10 04:50:35;;;;;;;3.20;1.50;;;21.70;50.40;;;;;;5185877;28;20045;-77
2021/12/10 04:53:09;;;;;;;4.57;1.30;;;21.80;50.50;;;;;;5186668;28;20033;-77
2021/12/10 04:55:43;;;;;;;3.03;1.27;;;21.80;50.80;;;;;;5189179;28;20042;-77
2021/12/10 04:58:15;;;;;;;3.53;1.27;;;21.80;50.40;;;;;;5191875;28;20049;-77
2021/12/10 05:00:50;;;;;;;6.78;1.50;;;21.80;50.50;;;;;;5195562;28;20765;-77
2021/12/10 05:03:23;;;;;;;4.57;1.23;;;21.70;50.50;;;;;;5200053;28;20502;-77
2021/12/10 05:06:01;;;;;;;4.77;1.53;;;21.80;50.60;;;;;;5196450;28;20049;-77
2021/12/10 05:08:35;;;;;;;5.20;1.45;;;21.80;50.70;;;;;;5195248;28;20076;-77
2021/12/10 05:11:10;;;;;;;3.72;1.20;;;21.80;51.40;;;;;;5183569;28;20048;-77
2021/12/10 05:13:45;;;;;;;4.25;1.40;;;21.80;50.80;;;;;;5196950;28;20072;-77
2021/12/10 05:16:25;;;;;;;4.72;1.35;;;21.80;50.80;;;;;;5190040;28;20049;-77
2021/12/10 05:19:00;;;;;;;7.07;1.50;;;21.80;50.80;;;;;;5169698;28;20215;-77
2021/12/10 05:21:35;;;;;;;5.57;1.15;;;21.80;50.90;;;;;;5202819;28;20822;-78
2021/12/10 05:24:09;;;;;;;4.72;1.55;;;21.80;50.90;;;;;;5204550;28;20486;-76
2021/12/10 05:26:42;;;;;;;6.03;1.70;;;21.80;50.90;;;;;;5197347;28;20605;-77
2021/12/10 05:29:15;;;;;;;3.97;1.70;;;21.80;51.00;;;;;;5169479;28;20041;-77
2021/12/10 05:31:48;;;;;;;5.05;1.42;;;21.80;51.00;;;;;;5184893;28;20077;-77
2021/12/10 05:34:21;;;;;;;4.43;1.30;;;21.80;51.10;;;;;;5204221;28;20032;-77
2021/12/10 05:36:56;;;;;;;8.68;1.75;;;21.80;51.20;;;;;;5208393;28;20036;-77
2021/12/10 05:39:28;;;;;;;7.10;1.45;;;21.80;51.20;;;;;;5201554;28;20067;-77
2021/12/10 05:42:03;;;;;;;7.07;1.42;;;21.80;51.30;;;;;;5202366;28;20071;-77
2021/12/10 05:44:38;;;;;;;5.60;1.55;;;21.90;51.30;;;;;;5192874;28;20049;-77
2021/12/10 05:47:11;;;;;;;4.47;1.70;;;21.80;51.30;;;;;;5192313;28;20050;-77
2021/12/10 05:49:43;;;;;;;11.83;1.90;;;21.90;51.20;;;;;;5196033;28;20049;-77
2021/12/10 05:52:15;;;;;;;7.60;1.42;;;21.90;51.20;;;;;;5177730;28;20056;-77
2021/12/10 05:54:50;;;;;;;4.32;1.27;;;21.90;51.20;;;;;;5191534;28;20049;-78
2021/12/10 05:57:23;;;;;;;5.95;1.73;;;21.90;51.20;;;;;;5187305;28;20041;-77
2021/12/10 05:59:55;;;;;;;16.23;2.47;;;21.90;51.20;;;;;;5199977;28;23163;-77
2021/12/10 06:02:27;;;;;;;35.00;3.13;;;22.00;51.70;;;;;;5173467;28;20045;-77
2021/12/10 06:05:00;;;;;;;27.23;2.95;;;22.00;52.10;;;;;;5197033;28;20087;-77
2021/12/10 06:07:33;;;;;;;21.57;3.67;;;22.00;52.20;;;;;;5196576;28;20052;-78
2021/12/10 06:10:08;;;;;;;25.08;3.60;;;22.10;52.20;;;;;;5198751;28;20037;-78
2021/12/10 06:12:43;;;;;;;26.90;3.17;;;22.10;52.10;;;;;;5201320;28;20056;-77
2021/12/10 06:15:19;;;;;;;24.27;2.80;;;22.10;51.90;;;;;;5200958;28;20049;-77
2021/12/10 06:17:52;;;;;;;23.83;3.38;;;22.10;51.70;;;;;;5185351;28;20614;-78
2021/12/10 06:20:30;;;;;;;11.55;2.28;;;22.10;51.70;;;;;;5201270;28;20588;-77
2021/12/10 06:23:04;;;;;;;15.65;2.47;;;22.10;51.60;;;;;;5201277;28;20048;-78
2021/12/10 06:25:37;;;;;;;25.48;2.75;;;22.10;51.50;;;;;;5202354;28;20455;-78
2021/12/10 06:28:10;;;;;;;13.27;2.30;;;22.10;51.50;;;;;;5205529;28;20577;-78
2021/12/10 06:30:45;;;;;;;18.75;2.50;;;22.10;51.40;;;;;;5205112;28;20045;-78
2021/12/10 06:33:20;;;;;;;10.85;2.05;;;22.10;51.30;;;;;;5206032;28;20662;-78
2021/12/10 06:35:53;;;;;;;12.35;2.55;;;22.10;51.10;;;;;;5196446;28;20037;-78
2021/12/10 06:38:25;;;;;;;7.80;2.38;;;22.10;50.90;;;;;;5191875;28;20628;-77
2021/12/10 06:41:01;;;;;;;16.15;2.53;;;22.10;50.80;;;;;;5218033;28;20037;-78
2021/12/10 06:43:34;;;;;;;11.90;2.47;;;22.10;50.60;;;;;;5216913;28;20266;-77
2021/12/10 06:46:07;;;;;;;10.07;2.25;;;22.10;50.60;;;;;;5207388;28;20285;-78
2021/12/10 06:48:41;;;;;;;11.50;2.67;;;22.10;50.50;;;;;;5212138;28;20220;-78
2021/12/10 06:51:18;;;;;;;10.43;2.13;;;22.10;50.50;;;;;;5212541;28;20045;-78
2021/12/10 06:53:51;;;;;;;13.38;2.33;;;22.10;50.40;;;;;;5214547;28;20478;-77
2021/12/10 06:56:24;;;;;;;9.32;2.65;;;22.10;50.30;;;;;;5211558;28;20049;-78
2021/12/10 06:58:57;;;;;;;7.30;1.88;;;22.10;50.20;;;;;;5216908;28;20415;-78
2021/12/10 07:01:38;;;;;;;8.05;2.25;;;22.10;50.00;;;;;;5214582;28;20285;-78
2021/12/10 07:04:13;;;;;;;9.23;2.38;;;22.10;49.90;;;;;;5212290;28;20048;-78
2021/12/10 07:06:47;;;;;;;17.33;2.88;;;22.10;49.80;;;;;;5216393;28;20413;-78
2021/12/10 07:09:20;;;;;;;;;;;22.10;49.80;;;;;;5216169;28;20059;-77
2021/12/10 07:11:54;;;;;;;9.63;2.20;;;22.10;49.70;;;;;;5199567;28;19920;-78
2021/12/10 07:14:27;;;;;;;9.23;2.10;;;22.10;49.80;;;;;;5214486;28;20057;-77
2021/12/10 07:17:00;;;;;;;11.05;2.47;;;22.10;49.70;;;;;;5213043;28;20430;-78
2021/12/10 07:19:32;;;;;;;9.37;2.07;;;22.10;49.70;;;;;;5212712;28;20053;-78
2021/12/10 07:22:05;;;;;;;11.07;2.25;;;22.10;49.60;;;;;;5213549;28;20052;-78
2021/12/10 07:24:37;;;;;;;8.95;2.85;;;22.10;49.60;;;;;;5215653;28;20363;-78
2021/12/10 07:27:11;;;;;;;10.27;2.25;;;22.10;49.60;;;;;;5195651;28;20051;-78
2021/12/10 07:29:44;;;;;;;6.78;2.03;;;22.10;49.60;;;;;;5214624;28;20045;-78
2021/12/10 07:32:16;;;;;;;9.32;2.25;;;22.10;49.50;;;;;;5205912;28;20064;-78
2021/12/10 07:34:50;;;;;;;13.57;2.10;;;22.10;49.60;;;;;;5202532;28;20482;-78
2021/12/10 07:37:23;;;;;;;6.30;1.98;;;22.10;49.50;;;;;;5205125;28;20044;-77
2021/12/10 07:39:55;;;;;;;9.80;2.27;;;22.10;49.50;;;;;;5194363;28;20064;-78
2021/12/10 07:42:28;;;;;;;7.30;2.30;;;22.10;49.40;;;;;;5188597;28;20056;-77
2021/12/10 07:45:01;;;;;;;17.67;2.50;;;22.10;49.40;;;;;;5207433;28;20041;-85
2021/12/10 07:47:36;;;;;;;;;;;22.20;50.30;;;;;;5205137;28;20386;-78
2021/12/10 07:50:16;;;;;;;16.73;3.15;;;22.10;50.40;;;;;;5208555;28;19928;-78
2021/12/10 07:52:54;;;;;;;7.18;2.10;;;22.10;50.30;;;;;;5204952;28;20052;-78
2021/12/10 07:55:30;;;;;;;13.27;2.20;;;22.20;50.20;;;;;;5204496;28;20071;-77
2021/12/10 07:58:06;;;;;;;6.53;1.90;;;22.20;50.20;;;;;;5204676;28;20049;-78
2021/12/10 08:00:40;;;;;;;8.60;2.17;;;22.20;50.00;;;;;;5211109;28;20520;-78
2021/12/10 08:03:13;;;;;;;7.15;2.08;;;22.20;50.00;;;;;;5200616;28;20064;-78
2021/12/10 08:05:47;;;;;;;9.40;1.90;;;22.20;49.90;;;;;;5205000;28;20228;-78
2021/12/10 08:08:19;;;;;;;;;;;22.20;49.80;;;;;;5206326;28;20053;-78
2021/12/10 08:10:53;;;;;;;7.30;2.28;;;22.20;49.80;;;;;;5205360;28;19924;-78
2021/12/10 08:13:25;;;;;;;9.52;2.78;;;22.20;49.90;;;;;;5201217;28;20045;-77
2021/12/10 08:15:58;;;;;;;13.48;2.60;;;22.20;50.00;;;;;;5205472;28;20535;-77
2021/12/10 08:18:31;;;;;;;12.05;3.33;;;22.20;50.00;;;;;;5185512;28;20041;-77
2021/12/10 08:21:05;;;;;;;13.68;3.08;;;22.30;50.00;;;;;;5205966;28;20056;-77
2021/12/10 08:23:38;;;;;;;11.40;3.42;;;22.30;50.00;;;;;;5208771;28;20514;-77
2021/12/10 08:26:12;;;;;;;9.95;2.80;;;22.30;50.00;;;;;;5211295;28;20053;-77
2021/12/10 08:28:45;;;;;;;8.25;3.05;;;22.30;50.00;;;;;;5211837;28;20410;-77
2021/12/10 08:31:19;;;;;;;13.57;2.95;;;22.30;49.90;;;;;;5209918;28;20048;-78
2021/12/10 08:33:52;;;;;;;11.38;2.78;;;22.30;50.20;;;;;;5207164;28;20032;-78
2021/12/10 08:36:25;;;;;;;14.75;2.95;;;22.40;50.30;;;;;;5209351;28;20124;-78
2021/12/10 08:38:58;;;;;;;14.63;3.05;;;22.40;50.50;;;;;;5187575;28;20045;-79
2021/12/10 08:41:33;;;;;;;7.20;2.38;;;22.40;50.70;;;;;;5210593;28;20413;-78
2021/12/10 08:44:07;;;;;;;10.80;2.90;;;22.40;50.90;;;;;;5211672;28;20072;-79
2021/12/10 08:46:43;;;;;;;12.02;2.83;;;22.40;50.90;;;;;;5191563;28;20071;-79
2021/12/10 08:49:16;;;;;;;10.30;2.13;;;22.40;50.80;;;;;;5192672;28;20044;-79
2021/12/10 08:51:52;;;;;;;7.93;2.60;;;22.40;50.70;;;;;;5209987;28;20056;-79
2021/12/10 08:54:29;;;;;;;13.88;2.50;;;22.40;50.60;;;;;;5211319;28;20049;-79
2021/12/10 08:57:04;;;;;;;7.05;2.28;;;22.40;50.60;;;;;;5212689;28;20216;-79
2021/12/10 08:59:38;;;;;;;8.10;2.30;;;22.40;50.60;;;;;;5212875;28;20045;-79
2021/12/10 09:02:16;;;;;;;9.50;2.58;;;22.40;50.60;;;;;;5207309;28;20045;-79
2021/12/10 09:04:48;;;;;;;8.38;2.53;;;22.40;50.70;;;;;;5192644;28;20053;-79
2021/12/10 09:07:21;;;;;;;4.38;2.00;;;22.40;50.70;;;;;;5205337;28;20056;-79
2021/12/10 09:09:54;;;;;;;10.70;2.67;;;22.40;50.60;;;;;;5209527;28;20056;-79
2021/12/10 09:12:28;;;;;;;8.13;2.38;;;22.40;50.50;;;;;;5209674;28;20427;-79
2021/12/10 09:15:02;;;;;;;13.23;2.50;;;22.40;50.50;;;;;;5197393;28;20053;-78
2021/12/10 09:17:37;;;;;;;9.35;2.28;;;22.40;50.60;;;;;;5207961;28;21138;-78
2021/12/10 09:20:29;;;;;;;10.35;2.70;;;22.40;50.60;;;;;;5188616;28;20045;-79
2021/12/10 09:23:02;;;;;;;5.95;2.50;;;22.40;50.60;;;;;;5216772;28;20430;-78
2021/12/10 09:25:37;;;;;;;7.13;2.15;;;22.50;50.60;;;;;;5208414;28;20056;-79
2021/12/10 09:28:10;;;;;;;7.53;2.55;;;22.50;50.60;;;;;;5212778;28;20049;-79
2021/12/10 09:30:46;;;;;;;8.27;2.10;;;22.40;50.50;;;;;;5213847;28;20041;-79
2021/12/10 09:33:19;;;;;;;3.75;2.40;;;22.50;50.60;;;;;;5213608;28;20049;-80
2021/12/10 09:35:54;;;;;;;9.68;2.88;;;22.50;50.50;;;;;;5211811;28;20513;-79
2021/12/10 09:38:27;;;;;;;11.00;2.33;;;22.50;50.50;;;;;;5206685;28;20045;-79
2021/12/10 09:41:09;;;;;;;5.82;2.20;;;22.50;50.40;;;;;;5200334;28;20230;-79
2021/12/10 09:43:43;;;;;;;7.97;1.95;;;22.50;50.40;;;;;;5170708;28;20041;-79
2021/12/10 09:46:15;;;;;;;;;;;22.50;50.40;;;;;;5190764;28;20383;-80
2021/12/10 09:48:49;;;;;;;8.85;2.85;;;22.40;50.40;;;;;;5200467;28;20243;-79
2021/12/10 09:51:27;;;;;;;9.35;2.50;;;22.50;50.50;;;;;;5183151;28;20049;-79
2021/12/10 09:54:06;;;;;;;6.05;2.20;;;22.50;50.40;;;;;;5214514;28;20049;-79
2021/12/10 09:56:44;;;;;;;5.85;2.03;;;22.50;50.40;;;;;;5211828;28;20075;-79
2021/12/10 09:59:17;;;;;;;4.65;1.95;;;22.50;50.40;;;;;;5215800;28;20052;-79
2021/12/10 10:01:52;;;;;;;9.83;2.03;;;22.50;50.30;;;;;;5186946;28;20045;-79
2021/12/10 10:04:53;;;;;;;7.35;1.83;;;22.50;50.20;;;;;;5193165;28;20057;-79
2021/12/10 10:07:28;;;;;;;10.15;2.78;;;22.50;50.20;;;;;;5204083;28;20095;-79
2021/12/10 10:10:09;;;;;;;11.13;2.97;;;22.50;50.20;;;;;;5200380;28;20037;-79
2021/12/10 10:12:46;;;;;;;8.43;2.05;;;22.40;50.10;;;;;;5202682;28;20049;-79
2021/12/10 10:15:26;;;;;;;6.38;2.08;;;22.50;50.10;;;;;;5201739;28;20041;-78
2021/12/10 10:18:06;;;;;;;8.93;2.25;;;22.50;50.10;;;;;;5182548;28;20060;-78
2021/12/10 10:21:01;;;;;;;6.65;1.98;;;22.50;50.10;;;;;;5208605;28;20068;-78
2021/12/10 10:23:36;;;;;;;6.40;1.73;;;22.50;50.00;;;;;;5210741;28;20601;-78
2021/12/10 10:26:14;;;;;;;7.47;2.33;;;22.40;50.00;;;;;;5198717;28;20061;-78
2021/12/10 10:28:48;;;;;;;6.90;1.75;;;22.50;50.00;;;;;;5205078;28;20553;-78
2021/12/10 10:31:23;;;;;;;4.78;2.28;;;22.50;49.90;;;;;;4850591;28;10000323;-78
2021/12/10 10:33:57;;;;;;;3.40;1.70;;;22.50;49.80;;;;;;5188398;28;20056;-78
2021/12/10 10:36:32;;;;;;;6.47;1.70;;;22.50;49.80;;;;;;5176227;28;20051;-78
2021/12/10 10:39:32;;;;;;;3.20;1.48;;;22.50;49.80;;;;;;5183125;28;20386;-78
2021/12/10 10:42:09;;;;;;;4.53;2.05;;;22.50;49.70;;;;;;5201317;28;20044;-78
2021/12/10 10:45:06;;;;;;;4.53;1.73;;;22.50;49.70;;;;;;5181371;28;20608;-78
2021/12/10 10:47:38;;;;;;;3.05;1.58;;;22.50;49.70;;;;;;5183657;28;20481;-78
2021/12/10 10:50:22;;;;;;;10.85;2.13;;;22.50;49.60;;;;;;5205021;28;20049;-78
2021/12/10 10:53:01;;;;;;;6.15;1.98;;;22.50;49.60;;;;;;5203928;28;20466;-78
2021/12/10 10:55:55;;;;;;;6.80;1.75;;;22.50;49.10;;;;;;5167561;28;20041;-78
2021/12/10 10:58:36;;;;;;;4.40;1.88;;;22.50;49.60;;;;;;5198875;28;20052;-78
2021/12/10 11:01:23;;;;;;;5.05;1.67;;;22.50;49.60;;;;;;5199283;28;20041;-78
2021/12/10 11:04:29;;;;;;;3.75;1.90;;;22.50;49.50;;;;;;5200914;28;20048;-79
2021/12/10 11:07:22;;;;;;;4.63;1.55;;;22.50;49.50;;;;;;5189249;28;20053;-78
2021/12/10 11:10:05;;;;;;;4.33;1.57;;;22.50;49.50;;;;;;5208803;28;20390;-78
2021/12/10 11:12:40;;;;;;;4.85;1.80;;;22.50;49.50;;;;;;5203796;28;20049;-78
2021/12/10 11:15:16;;;;;;;3.55;1.60;;;22.60;49.50;;;;;;5202010;28;20047;-78
2021/12/10 11:17:51;;;;;;;4.15;1.40;;;22.60;49.40;;;;;;5199638;28;20410;-79
2021/12/10 11:20:34;;;;;;;4.65;1.70;;;22.70;49.30;;;;;;5203920;28;20060;-78
2021/12/10 11:23:09;;;;;;;3.17;1.73;;;22.70;49.10;;;;;;5206486;28;20057;-78
2021/12/10 11:25:49;;;;;;;3.08;1.55;;;22.80;49.20;;;;;;5202129;28;20045;-78
2021/12/10 11:28:30;;;;;;;2.92;1.38;;;23.00;48.80;;;;;;5176794;28;20057;-78
2021/12/10 11:31:06;;;;;;;4.43;1.88;;;23.40;48.10;;;;;;5205378;28;20709;-78
2021/12/10 11:33:51;;;;;;;5.45;2.40;;;23.60;47.60;;;;;;5211163;28;20041;-78
2021/12/10 11:36:26;;;;;;;3.38;1.90;;;23.50;47.40;;;;;;5207489;28;20060;-78
2021/12/10 11:39:00;;;;;;;2.90;1.60;;;23.40;47.70;;;;;;5211496;28;20045;-78
2021/12/10 11:41:38;;;;;;;3.30;1.58;;;23.20;47.90;;;;;;5190345;28;20044;-78
2021/12/10 11:49:38;;;;;;;4.65;2.17;;;23.20;47.90;;;;;;5205139;28;20072;-78
2021/12/10 11:52:18;;;;;;;5.13;2.10;;;23.20;47.70;;;;;;5202946;28;20056;-78
2021/12/10 11:54:59;;;;;;;2.33;1.65;;;23.20;47.80;;;;;;5204092;28;20052;-78
2021/12/10 11:57:39;;;;;;;4.50;1.50;;;23.20;47.70;;;;;;5181508;28;20045;-78
2021/12/10 12:00:16;;;;;;;4.20;1.67;;;23.20;47.70;;;;;;5203923;28;20517;-78
2021/12/10 12:02:54;;;;;;;3.00;1.52;;;23.10;47.80;;;;;;5188513;28;20064;-78
2021/12/10 12:05:40;;;;;;;3.95;1.60;;;23.00;47.90;;;;;;5201128;28;20052;-78
2021/12/10 12:08:17;;;;;;;7.07;2.00;;;22.90;48.10;;;;;;5214462;28;20045;-78
2021/12/10 12:10:55;;;;;;;2.60;1.50;;;22.90;48.20;;;;;;5211764;28;20052;-78
2021/12/10 12:13:56;;;;;;;4.40;1.45;;;22.80;48.20;;;;;;5207900;28;20357;-78
2021/12/10 12:16:28;;;;;;;2.47;1.48;;;22.80;48.30;;;;;;5166554;28;20099;-78
2021/12/10 12:19:04;;;;;;;6.25;2.00;;;22.80;48.40;;;;;;5179306;28;20095;-78
2021/12/10 12:27:10;;;;;;;2.75;1.38;;;22.70;48.50;;;;;;5186614;28;20053;-78
2021/12/10 12:30:07;;;;;;;4.60;1.85;;;22.70;48.50;;;;;;5177956;28;20358;-79
2021/12/10 12:33:00;;;;;;;4.03;1.48;;;22.60;48.50;;;;;;5151432;28;20048;-78
2021/12/10 12:35:33;;;;;;;5.20;1.70;;;22.60;48.50;;;;;;5146801;28;20071;-78
2021/12/10 12:38:15;;;;;;;5.47;1.25;;;22.60;48.60;;;;;;5160948;28;20064;-78
2021/12/10 12:41:14;;;;;;;3.05;1.63;;;22.60;48.60;;;;;;5190085;28;20056;-78
2021/12/10 12:44:27;;;;;;;3.25;1.80;;;22.60;48.60;;;;;;5179940;28;20630;-79
2021/12/10 12:47:32;;;;;;;4.57;2.08;;;22.60;48.70;;;;;;5136394;28;20050;-78
2021/12/10 12:50:18;;;;;;;3.92;1.95;;;22.60;48.90;;;;;;5149033;28;20387;-78
2021/12/10 12:52:56;;;;;;;7.97;2.38;;;22.60;49.00;;;;;;5203129;28;20045;-78
2021/12/10 12:55:50;;;;;;;10.65;1.80;;;22.50;49.30;;;;;;5212092;28;20549;-79
2021/12/10 12:58:32;;;;;;;5.43;1.58;;;22.60;49.40;;;;;;5210521;28;20045;-78
2021/12/10 13:01:33;;;;;;;7.72;1.80;;;22.60;49.40;;;;;;5207469;28;20049;-78
2021/12/10 13:04:17;;;;;;;4.20;1.30;;;22.60;49.60;;;;;;5207998;28;20048;-78
2021/12/10 13:07:16;;;;;;;3.10;1.40;;;22.50;49.70;;;;;;5207373;28;20033;-78
2021/12/10 13:09:56;;;;;;;6.97;1.83;;;22.50;49.70;;;;;;5188534;28;20061;-78
2021/12/10 13:12:55;;;;;;;4.32;1.73;;;22.60;49.80;;;;;;5203313;28;20049;-78
2021/12/10 13:15:29;;;;;;;4.65;1.90;;;22.50;49.80;;;;;;5197823;28;20041;-78
2021/12/10 13:18:06;;;;;;;4.72;2.10;;;22.50;49.90;;;;;;5182804;28;20045;-79
2021/12/10 13:20:46;;;;;;;2.67;1.50;;;22.50;50.00;;;;;;5200123;28;20606;-79
2021/12/10 13:23:25;;;;;;;7.68;2.22;;;22.60;50.10;;;;;;5198979;28;20049;-79
2021/12/10 13:26:01;;;;;;;3.92;1.63;;;22.50;50.10;;;;;;5199981;28;20045;-79
2021/12/10 13:28:34;;;;;;;4.25;1.52;;;22.60;50.10;;;;;;5199666;28;20506;-79
2021/12/10 13:31:14;;;;;;;5.78;1.30;;;22.50;50.10;;;;;;5170343;28;20052;-78
2021/12/10 13:33:47;;;;;;;7.00;2.05;;;22.60;50.40;;;;;;5156430;28;21269;-78
2021/12/10 13:36:22;;;;;;;10.00;1.92;;;22.50;50.40;;;;;;5157048;28;20045;-80
2021/12/10 13:38:55;;;;;;;3.15;1.50;;;22.60;50.30;;;;;;5146857;28;20060;-80
2021/12/10 13:41:32;;;;;;;5.50;2.10;;;22.60;50.30;;;;;;5166176;28;20049;-78
2021/12/10 13:44:32;;;;;;;5.20;1.60;;;22.50;50.10;;;;;;5173419;28;20068;-80
2021/12/10 13:47:21;;;;;;;3.67;1.50;;;22.50;50.00;;;;;;5176012;28;20053;-78
2021/12/10 13:50:00;;;;;;;5.07;1.80;;;22.50;50.00;;;;;;5170577;28;20048;-78
2021/12/10 13:52:36;;;;;;;5.22;1.85;;;22.50;49.90;;;;;;5183229;28;20053;-79